createdAt,value
2024-02-09T00:02:22.468Z,16.73
2024-02-09T00:04:53.284Z,14.05
2024-02-09T00:07:27.015Z,16.20
2024-02-09T00:09:57.739Z,16.13
2024-02-09T00:12:28.455Z,14.40
2024-02-09T00:15:00.954Z,16.17
2024-02-09T00:17:34.959Z,11.88
2024-02-09T00:20:09.224Z,14.25
2024-02-09T00:22:40.679Z,10.48
2024-02-09T00:25:12.776Z,12.43
2024-02-09T00:27:44.857Z,14.23
2024-02-09T00:30:15.853Z,12.10
2024-02-09T00:32:49.252Z,12.95
2024-02-09T00:35:21.671Z,13.32
2024-02-09T00:37:57.171Z,14.25
2024-02-09T00:40:33.125Z,13.40
2024-02-09T00:43:05.463Z,11.30
2024-02-09T00:45:38.139Z,12.02
2024-02-09T00:48:11.915Z,12.85
2024-02-09T00:50:42.530Z,13.45
2024-02-09T00:53:13.190Z,15.00
2024-02-09T00:55:44.035Z,13.38
2024-02-09T00:58:15.165Z,13.40
2024-02-09T01:00:45.794Z,15.65
2024-02-09T01:03:21.744Z,10.75
2024-02-09T01:05:52.544Z,13.20
2024-02-09T01:08:24.401Z,12.82
2024-02-09T01:10:56.099Z,12.90
2024-02-09T01:13:39.161Z,13.05
2024-02-09T01:16:22.676Z,13.27
2024-02-09T01:19:09.409Z,12.63
2024-02-09T01:21:52.359Z,15.32
2024-02-09T01:24:35.333Z,13.25
2024-02-09T01:27:18.321Z,13.73
2024-02-09T01:30:01.336Z,14.40
2024-02-09T01:32:46.705Z,13.93
2024-02-09T01:35:32.365Z,11.57
2024-02-09T01:38:15.435Z,15.98
2024-02-09T01:40:58.445Z,11.35
2024-02-09T01:43:41.483Z,17.45
2024-02-09T01:46:25.555Z,15.48
2024-02-09T01:49:08.803Z,16.58
2024-02-09T01:51:55.054Z,16.65
2024-02-09T01:54:38.649Z,16.85
2024-02-09T01:57:24.119Z,11.18
2024-02-09T02:00:10.185Z,10.23
2024-02-09T02:02:58.860Z,13.15
2024-02-09T02:05:42.487Z,10.43
2024-02-09T02:08:29.476Z,12.32
2024-02-09T02:13:55.269Z,14.15
2024-02-09T02:16:38.579Z,12.60
2024-02-09T02:19:21.882Z,12.90
2024-02-09T02:22:14.042Z,11.80
2024-02-09T02:25:05.988Z,12.65
2024-02-09T02:27:55.216Z,12.20
2024-02-09T02:30:38.211Z,11.00
2024-02-09T02:33:21.563Z,11.68
2024-02-09T02:36:04.570Z,10.10
2024-02-09T02:38:47.618Z,13.63
2024-02-09T02:41:18.013Z,11.45
2024-02-09T02:43:46.268Z,14.07
2024-02-09T02:46:20.048Z,14.98
2024-02-09T02:49:04.082Z,12.63
2024-02-09T02:51:47.318Z,11.10
2024-02-09T02:54:32.281Z,17.60
2024-02-09T02:57:18.965Z,17.67
2024-02-09T03:00:04.647Z,16.90
2024-02-09T03:02:48.191Z,11.82
2024-02-09T03:05:21.722Z,14.77
2024-02-09T03:08:43.096Z,12.50
2024-02-09T03:10:45.249Z,9.60
2024-02-09T03:13:18.551Z,13.43
2024-02-09T03:15:49.540Z,14.18
2024-02-09T03:18:23.030Z,14.60
2024-02-09T03:20:56.840Z,10.05
2024-02-09T03:23:27.708Z,16.30
2024-02-09T03:25:58.390Z,14.05
2024-02-09T03:28:31.696Z,10.00
2024-02-09T03:31:03.664Z,20.38
2024-02-09T03:33:34.318Z,14.15
2024-02-09T03:36:06.715Z,12.82
2024-02-09T03:38:37.365Z,11.52
2024-02-09T03:41:09.005Z,12.70
2024-02-09T03:43:42.352Z,14.15
2024-02-09T03:46:13.927Z,11.30
2024-02-09T03:48:44.604Z,15.20
2024-02-09T03:51:15.351Z,15.13
2024-02-09T03:53:46.019Z,14.00
2024-02-09T03:56:16.900Z,11.23
2024-02-09T03:58:50.184Z,11.68
2024-02-09T04:01:21.139Z,11.55
2024-02-09T04:03:51.931Z,12.93
2024-02-09T04:06:26.055Z,11.90
2024-02-09T04:08:57.735Z,14.02
2024-02-09T04:11:30.203Z,10.98
2024-02-09T04:14:03.508Z,15.00
2024-02-09T04:16:34.180Z,19.55
2024-02-09T04:19:05.215Z,10.40
2024-02-09T04:21:35.891Z,15.57
2024-02-09T04:24:06.939Z,12.88
2024-02-09T04:26:38.349Z,11.63
2024-02-09T04:29:11.627Z,18.90
2024-02-09T04:31:43.607Z,17.60
2024-02-09T04:34:15.518Z,17.15
2024-02-09T04:36:47.687Z,18.08
2024-02-09T04:39:20.542Z,15.50
2024-02-09T04:41:54.092Z,20.42
2024-02-09T04:44:27.642Z,15.82
2024-02-09T04:46:58.493Z,18.95
2024-02-09T04:49:29.412Z,18.33
2024-02-09T04:52:00.260Z,12.07
2024-02-09T04:54:31.332Z,17.77
2024-02-09T04:57:01.985Z,15.45
2024-02-09T04:59:35.236Z,16.17
2024-02-09T05:02:06.040Z,17.88
2024-02-09T05:04:36.846Z,10.02
2024-02-09T05:07:08.041Z,15.77
2024-02-09T05:09:39.191Z,13.75
2024-02-09T05:12:11.059Z,13.23
2024-02-09T05:14:45.278Z,19.65
2024-02-09T05:17:16.031Z,13.00
2024-02-09T05:19:46.907Z,14.43
2024-02-09T05:22:17.676Z,15.10
2024-02-09T05:24:48.869Z,15.77
2024-02-09T05:27:19.766Z,14.38
2024-02-09T05:29:53.933Z,13.82
2024-02-09T05:32:26.484Z,17.23
2024-02-09T05:34:59.245Z,16.77
2024-02-09T05:37:30.176Z,21.20
2024-02-09T05:40:02.637Z,20.27
2024-02-09T05:42:35.225Z,19.65
2024-02-09T05:45:09.160Z,26.75
2024-02-09T05:47:39.998Z,21.55
2024-02-09T05:50:13.655Z,19.58
2024-02-09T05:52:46.910Z,17.98
2024-02-09T05:55:17.705Z,19.90
2024-02-09T05:57:49.322Z,21.80
2024-02-09T06:00:23.388Z,24.33
2024-02-09T06:02:55.025Z,22.83
2024-02-09T06:05:25.979Z,21.45
2024-02-09T06:07:56.757Z,26.27
2024-02-09T06:10:27.474Z,30.05
2024-02-09T06:12:58.386Z,25.58
2024-02-09T06:15:31.799Z,23.80
2024-02-09T06:18:04.032Z,23.17
2024-02-09T06:20:35.253Z,29.25
2024-02-09T06:23:06.360Z,37.20
2024-02-09T06:25:38.040Z,33.47
2024-02-09T06:28:08.967Z,36.78
2024-02-09T06:30:42.353Z,29.95
2024-02-09T06:33:13.317Z,30.23
2024-02-09T06:35:44.069Z,23.50
2024-02-09T06:38:15.507Z,22.35
2024-02-09T06:40:46.195Z,23.23
2024-02-09T06:43:19.729Z,21.77
2024-02-09T06:45:53.254Z,17.48
2024-02-09T06:48:26.008Z,19.73
2024-02-09T06:50:57.982Z,20.38
2024-02-09T06:53:28.616Z,22.60
2024-02-09T06:56:01.772Z,24.15
2024-02-09T06:58:32.527Z,23.55
2024-02-09T07:01:11.297Z,27.58
2024-02-09T07:03:42.033Z,24.05
2024-02-09T07:06:12.808Z,19.58
2024-02-09T07:08:52.035Z,16.33
2024-02-09T07:11:22.849Z,15.73
2024-02-09T07:13:53.530Z,14.13
2024-02-09T07:16:26.847Z,15.00
2024-02-09T07:18:57.598Z,12.82
2024-02-09T07:21:28.316Z,13.30
2024-02-09T07:24:03.338Z,16.75
2024-02-09T07:26:36.675Z,15.82
2024-02-09T07:29:07.432Z,11.95
2024-02-09T07:31:40.832Z,14.75
2024-02-09T07:34:13.787Z,16.80
2024-02-09T07:36:45.594Z,15.23
2024-02-09T07:39:16.247Z,11.80
2024-02-09T07:41:47.038Z,12.10
2024-02-09T07:44:17.919Z,14.57
2024-02-09T07:46:51.254Z,12.73
2024-02-09T07:49:22.319Z,10.50
2024-02-09T07:51:53.092Z,11.68
2024-02-09T07:54:24.638Z,11.00
2024-02-09T07:56:55.267Z,13.50
2024-02-09T07:59:26.018Z,20.00
2024-02-09T08:01:59.983Z,26.45
2024-02-09T08:04:33.552Z,15.07
2024-02-09T08:07:04.423Z,16.83
2024-02-09T08:09:35.176Z,16.98
2024-02-09T08:12:05.861Z,37.22
2024-02-09T08:14:38.435Z,35.92
2024-02-09T08:17:12.610Z,40.42
2024-02-09T08:19:43.367Z,39.72
2024-02-09T08:22:14.236Z,40.33
2024-02-09T08:24:44.924Z,53.22
2024-02-09T08:27:15.646Z,38.72
2024-02-09T08:29:46.280Z,44.35
2024-02-09T08:32:19.487Z,49.95
2024-02-09T08:34:50.222Z,51.33
2024-02-09T08:37:21.117Z,50.95
2024-02-09T08:39:51.846Z,52.70
2024-02-09T08:42:23.120Z,51.67
2024-02-09T08:44:53.872Z,26.48
2024-02-09T08:47:27.274Z,14.60
2024-02-09T08:49:58.152Z,19.50
2024-02-09T08:52:28.886Z,17.55
2024-02-09T08:55:01.546Z,17.20
2024-02-09T08:57:35.842Z,12.80
2024-02-09T09:00:08.882Z,14.57
2024-02-09T09:02:42.373Z,32.85
2024-02-09T09:05:13.151Z,10.70
2024-02-09T09:07:43.869Z,7.18
2024-02-09T09:10:14.599Z,10.32
2024-02-09T09:12:45.398Z,8.43
2024-02-09T09:15:17.860Z,9.25
2024-02-09T09:17:53.125Z,7.82
2024-02-09T09:20:23.968Z,11.57
2024-02-09T09:22:56.801Z,8.82
2024-02-09T09:25:27.549Z,13.85
2024-02-09T09:27:58.290Z,16.77
2024-02-09T09:30:30.668Z,17.45
2024-02-09T09:33:05.550Z,13.18
2024-02-09T09:35:36.213Z,15.13
2024-02-09T09:38:08.939Z,13.10
2024-02-09T09:40:43.689Z,24.40
2024-02-09T09:43:18.597Z,13.35
2024-02-09T09:45:58.018Z,14.13
2024-02-09T09:48:31.479Z,16.50
2024-02-09T09:51:03.754Z,14.43
2024-02-09T09:53:41.865Z,13.70
2024-02-09T09:56:13.451Z,11.95
2024-02-09T09:58:44.730Z,14.38
2024-02-09T10:01:18.081Z,19.08
2024-02-09T10:03:53.533Z,29.27
2024-02-09T10:06:25.574Z,81.10
2024-02-09T10:08:56.401Z,13.95
2024-02-09T10:11:28.158Z,30.42
2024-02-09T10:13:58.848Z,12.73
2024-02-09T10:16:29.619Z,15.90
2024-02-09T10:19:03.392Z,9.68
2024-02-09T10:21:37.807Z,12.02
2024-02-09T10:24:13.223Z,11.02
2024-02-09T10:26:44.570Z,12.50
2024-02-09T10:29:16.431Z,13.82
2024-02-09T10:31:49.082Z,16.65
2024-02-09T10:34:22.516Z,11.57
2024-02-09T10:36:53.542Z,10.50
2024-02-09T10:39:24.227Z,10.35
2024-02-09T10:41:57.713Z,9.82
2024-02-09T10:44:34.116Z,7.93
2024-02-09T10:47:05.826Z,13.35
2024-02-09T10:49:42.627Z,10.63
2024-02-09T10:52:14.248Z,8.63
2024-02-09T10:54:52.290Z,11.73
2024-02-09T10:57:24.541Z,8.20
2024-02-09T10:59:55.331Z,9.93
2024-02-09T11:02:26.743Z,7.65
2024-02-09T11:05:00.948Z,12.30
2024-02-09T11:07:36.395Z,7.60
2024-02-09T11:10:10.010Z,7.43
2024-02-09T11:12:40.637Z,6.88
2024-02-09T11:15:19.901Z,9.40
2024-02-09T11:17:51.649Z,7.80
2024-02-09T11:20:25.292Z,11.80
2024-02-09T11:23:01.790Z,7.70
2024-02-09T11:25:37.168Z,10.82
2024-02-09T11:28:11.123Z,10.05
2024-02-09T11:30:42.950Z,7.43
2024-02-09T11:33:16.388Z,7.88
2024-02-09T11:35:54.169Z,9.43
2024-02-09T11:38:25.578Z,9.88
2024-02-09T11:40:58.683Z,8.45
2024-02-09T11:43:30.857Z,9.82
2024-02-09T11:46:04.564Z,9.13
2024-02-09T11:48:35.349Z,7.93
2024-02-09T11:51:08.966Z,9.77
2024-02-09T11:53:39.677Z,11.77
2024-02-09T11:56:11.018Z,9.13
2024-02-09T11:58:45.295Z,7.80
2024-02-09T12:01:16.066Z,7.60
2024-02-09T12:03:46.973Z,7.15
2024-02-09T12:06:22.966Z,11.27
2024-02-09T12:08:55.083Z,9.05
2024-02-09T12:11:25.723Z,9.30
2024-02-09T12:13:56.564Z,9.63
2024-02-09T12:16:27.319Z,8.10
2024-02-09T12:18:59.827Z,8.70
2024-02-09T12:21:33.389Z,6.75
2024-02-09T12:24:04.208Z,7.50
2024-02-09T12:26:39.623Z,10.55
2024-02-09T12:29:17.073Z,7.82
2024-02-09T12:31:52.257Z,5.82
2024-02-09T12:34:23.103Z,9.75
2024-02-09T12:37:00.912Z,8.82
2024-02-09T12:39:31.831Z,9.75
2024-02-09T12:42:03.725Z,8.50
2024-02-09T12:44:34.688Z,10.82
2024-02-09T12:47:06.975Z,8.13
2024-02-09T12:49:38.844Z,7.72
2024-02-09T12:52:15.941Z,9.65
2024-02-09T12:54:46.845Z,8.50
2024-02-09T12:57:17.674Z,6.30
2024-02-09T12:59:48.309Z,9.85
2024-02-09T13:02:21.578Z,6.75
2024-02-09T13:04:52.424Z,9.55
2024-02-09T13:07:25.763Z,6.95
2024-02-09T13:09:56.895Z,8.02
2024-02-09T13:12:30.200Z,9.85
2024-02-09T13:15:03.213Z,7.45
2024-02-09T13:17:36.885Z,8.77
2024-02-09T13:20:10.740Z,8.65
2024-02-09T13:22:44.214Z,5.53
2024-02-09T13:25:17.931Z,5.78
2024-02-09T13:30:22.176Z,12.80
2024-02-09T13:32:52.985Z,6.20
2024-02-09T13:39:00.133Z,13.02
2024-02-09T13:41:35.353Z,11.93
2024-02-09T13:44:06.788Z,5.18
2024-02-09T13:46:37.513Z,7.88
2024-02-09T13:49:08.316Z,5.00
2024-02-09T13:51:39.206Z,8.52
2024-02-09T13:57:19.845Z,8.07
2024-02-09T13:59:51.400Z,6.15
2024-02-09T14:02:22.370Z,7.85
2024-02-09T14:04:53.154Z,6.32
2024-02-09T14:07:24.188Z,8.85
2024-02-09T14:09:56.862Z,9.05
2024-02-09T14:12:30.102Z,8.73
2024-02-09T14:15:02.680Z,5.20
2024-02-09T14:17:39.570Z,10.73
2024-02-09T14:20:11.704Z,7.20
2024-02-09T14:22:43.115Z,7.88
2024-02-09T14:25:14.632Z,7.35
2024-02-09T14:27:48.227Z,8.60
2024-02-09T14:30:19.885Z,8.73
2024-02-09T14:32:50.569Z,10.85
2024-02-09T14:35:21.541Z,14.95
2024-02-09T14:37:52.624Z,14.65
2024-02-09T14:40:24.096Z,13.65
2024-02-09T14:42:57.489Z,18.13
2024-02-09T14:45:28.777Z,11.48
2024-02-09T14:47:59.867Z,15.00
2024-02-09T14:50:31.083Z,18.02
2024-02-09T14:53:01.702Z,25.35
2024-02-09T14:55:32.498Z,17.33
2024-02-09T14:58:05.902Z,17.08
2024-02-09T15:00:38.035Z,15.55
2024-02-09T15:03:09.050Z,22.00
2024-02-09T15:05:41.882Z,25.75
2024-02-09T15:08:14.229Z,29.60
2024-02-09T15:10:46.560Z,26.88
2024-02-09T15:13:19.936Z,25.20
2024-02-09T15:15:51.287Z,29.85
2024-02-09T15:18:22.369Z,24.83
2024-02-09T15:20:53.128Z,26.40
2024-02-09T15:23:26.430Z,23.33
2024-02-09T15:25:57.145Z,27.52
2024-02-09T15:28:30.482Z,22.98
2024-02-09T15:31:01.611Z,21.23
2024-02-09T15:33:33.571Z,22.83
2024-02-09T15:36:04.484Z,14.45
2024-02-09T15:38:35.470Z,16.30
2024-02-09T15:41:06.562Z,17.52
2024-02-09T15:43:39.972Z,19.42
2024-02-09T15:46:17.537Z,24.55
2024-02-09T15:48:51.968Z,30.88
2024-02-09T15:51:24.859Z,32.00
2024-02-09T15:53:58.695Z,32.63
2024-02-09T15:56:34.130Z,39.72
2024-02-09T15:59:09.738Z,30.65
2024-02-09T16:01:41.764Z,25.92
2024-02-09T16:04:13.158Z,36.85
2024-02-09T16:06:44.236Z,37.20
2024-02-09T16:09:14.865Z,40.30
2024-02-09T16:11:47.854Z,44.42
2024-02-09T16:14:21.142Z,42.10
2024-02-09T16:16:51.775Z,36.50
2024-02-09T16:19:24.361Z,74.95
2024-02-09T16:21:56.295Z,75.60
2024-02-09T16:24:26.933Z,54.78
2024-02-09T16:26:57.603Z,64.13
2024-02-09T16:29:30.809Z,65.90
2024-02-09T16:32:01.505Z,58.65
2024-02-09T16:34:32.484Z,97.78
2024-02-09T16:37:06.268Z,113.97
2024-02-09T16:39:37.720Z,58.72
2024-02-09T16:42:08.702Z,60.10
2024-02-09T16:44:42.517Z,74.57
2024-02-09T16:47:14.290Z,97.32
2024-02-09T16:49:45.642Z,98.95
2024-02-09T16:52:16.583Z,84.65
2024-02-09T16:54:50.656Z,61.60
2024-02-09T16:57:24.304Z,80.55
2024-02-09T16:59:58.209Z,55.90
2024-02-09T17:02:29.477Z,52.28
2024-02-09T17:05:00.969Z,47.25
2024-02-09T17:07:34.527Z,49.80
2024-02-09T17:10:06.177Z,45.78
2024-02-09T17:12:40.533Z,44.20
2024-02-09T17:15:17.420Z,65.65
2024-02-09T17:17:48.931Z,42.22
2024-02-09T17:20:20.450Z,47.90
2024-02-09T17:22:52.813Z,41.83
2024-02-09T17:25:24.245Z,36.88
2024-02-09T17:27:55.835Z,46.25
2024-02-09T17:30:29.803Z,31.23
2024-02-09T17:33:01.518Z,28.85
2024-02-09T17:35:32.683Z,30.15
2024-02-09T17:38:03.896Z,29.25
2024-02-09T17:40:35.101Z,23.95
2024-02-09T17:43:06.051Z,25.70
2024-02-09T18:31:14.902Z,21.40
2024-02-09T18:33:47.862Z,21.17
2024-02-09T18:36:18.835Z,23.98
2024-02-09T18:38:50.280Z,25.20
2024-02-09T18:41:21.180Z,21.70
2024-02-09T18:43:54.838Z,21.35
2024-02-09T18:58:48.048Z,35.55
2024-02-09T19:01:39.701Z,37.13
2024-02-09T19:04:22.293Z,46.75
2024-02-09T19:06:57.934Z,36.10
2024-02-09T19:32:49.148Z,26.40
2024-02-09T19:35:20.304Z,20.63
2024-02-09T19:37:52.206Z,15.00
2024-02-09T19:40:23.581Z,19.63
2024-02-09T19:42:54.722Z,16.38
2024-02-09T19:45:28.457Z,17.50
2024-02-09T19:48:01.460Z,15.98
2024-02-09T19:50:32.314Z,17.48
2024-02-09T19:53:03.104Z,25.33
2024-02-09T19:55:39.538Z,19.00
2024-02-09T19:58:12.279Z,16.80
2024-02-09T20:00:45.761Z,17.52
2024-02-09T20:03:16.918Z,17.60
2024-02-09T20:05:50.778Z,12.23
2024-02-09T20:08:22.164Z,14.77
2024-02-09T20:10:54.245Z,13.77
2024-02-09T20:13:25.418Z,15.90
2024-02-09T20:16:04.611Z,24.02
2024-02-09T20:18:36.209Z,22.23
2024-02-09T20:21:07.272Z,22.02
2024-02-09T20:23:38.830Z,23.73
2024-02-09T20:26:09.742Z,25.77
2024-02-09T20:28:40.692Z,36.55
2024-02-09T20:31:16.179Z,30.65
2024-02-09T20:33:48.320Z,31.27
2024-02-09T20:36:19.478Z,24.83
2024-02-09T20:38:50.359Z,22.73
2024-02-09T20:41:21.302Z,28.10
2024-02-09T20:43:52.448Z,20.40
2024-02-09T20:46:27.141Z,34.55
2024-02-09T20:48:58.012Z,43.53
2024-02-09T20:51:28.866Z,38.67
2024-02-09T20:54:03.235Z,35.40
2024-02-09T20:56:34.286Z,39.35
2024-02-09T20:59:07.357Z,41.08
2024-02-09T21:01:42.172Z,33.83
2024-02-09T21:04:13.139Z,39.10
2024-02-09T21:06:44.155Z,32.30
2024-02-09T21:12:20.914Z,38.08
2024-02-09T21:14:51.807Z,37.05
2024-02-09T21:17:26.744Z,22.67
2024-02-09T21:19:57.734Z,24.75
2024-02-09T21:22:28.627Z,26.48
2024-02-09T21:24:59.823Z,27.08
2024-02-09T21:27:33.835Z,21.38
2024-02-09T21:30:08.878Z,30.48
2024-02-09T21:32:42.357Z,25.38
2024-02-09T21:35:14.851Z,27.55
2024-02-09T21:37:46.321Z,26.98
2024-02-09T21:40:17.405Z,23.73
2024-02-09T21:42:50.408Z,30.25
2024-02-09T21:45:23.399Z,24.17
2024-02-09T21:47:57.156Z,24.67
2024-02-09T21:50:28.006Z,25.77
2024-02-09T21:52:59.781Z,17.85
2024-02-09T21:55:30.940Z,20.70
2024-02-09T21:58:02.833Z,17.30
2024-02-09T22:00:35.253Z,18.88
2024-02-09T22:03:08.929Z,22.90
2024-02-09T22:05:40.325Z,19.30
2024-02-09T22:08:11.350Z,18.17
2024-02-09T22:10:42.760Z,22.00
2024-02-09T22:13:13.562Z,18.30
2024-02-09T22:15:46.229Z,20.52
2024-02-09T22:18:19.675Z,18.10
2024-02-09T22:20:59.842Z,17.63
2024-02-09T22:23:35.617Z,15.55
2024-02-09T22:26:08.632Z,14.40
2024-02-09T22:28:40.284Z,13.75
2024-02-09T22:31:15.636Z,18.13
2024-02-09T22:33:49.131Z,17.60
2024-02-09T22:36:20.800Z,18.75
2024-02-09T22:38:51.593Z,20.13
2024-02-09T22:41:22.380Z,17.13
2024-02-09T22:43:55.136Z,16.13
2024-02-09T22:46:27.356Z,17.02
2024-02-09T22:49:02.021Z,20.20
2024-02-09T22:51:32.770Z,16.47
2024-02-09T22:54:03.945Z,19.23
2024-02-09T22:56:35.240Z,15.25
2024-02-09T22:59:06.241Z,12.50
2024-02-09T23:01:37.079Z,15.88
2024-02-09T23:04:10.644Z,16.23
2024-02-09T23:06:41.421Z,14.35
2024-02-09T23:09:12.177Z,15.80
2024-02-09T23:11:43.049Z,14.98
2024-02-09T23:14:20.362Z,18.17
2024-02-09T23:16:54.747Z,14.20
2024-02-09T23:19:29.518Z,15.07
2024-02-09T23:22:02.371Z,14.60
2024-02-09T23:24:33.037Z,19.23
2024-02-09T23:27:07.048Z,12.80
2024-02-09T23:29:40.869Z,17.15
2024-02-09T23:35:32.568Z,16.27
2024-02-09T23:38:04.822Z,17.45
2024-02-09T23:40:35.730Z,14.70
2024-02-09T23:43:06.988Z,17.10
2024-02-09T23:45:39.659Z,13.32
2024-02-09T23:48:11.193Z,13.23
2024-02-09T23:50:45.003Z,14.10
2024-02-09T23:53:17.939Z,11.80
2024-02-09T23:55:52.677Z,11.20
2024-02-09T23:58:23.599Z,13.07
